Terminal Aerodrome Forecast
Issued by NWS Binghamton, NY

Home | Current Version | Previous Version | Text Only | Print | Product List | Glossary On
Versions: 1 2 3 4 5 6 7 8 9 10 11 12 13 14 15 16 17 18 19 20
000
FTUS41 KBGM 280800 AAA
TAFAVP
TAF AMD
KAVP 280835Z 2809/2906 24005KT P6SM OVC050
      TEMPO 2809/2810 -SHSN BKN025
     FM281200 30005KT P6SM -SHSN SCT025 BKN035
     FM281600 27008KT P6SM BKN040
     FM290000 VRB03KT P6SM SCT040 OVC100=

USA.gov is the U.S. government's official web portal to all federal, state and local government web resources and services.